Tiempo atmosférico en la estación meteorológica de Castell Del Ferro, Granada (235 m.)



Fecha
DESCASC
Temp. máxima en grados centígrados (hora)
DESCASC
Temp. mínima en grados centígrados (hora)
DESCASC
Temp. media en grados centígrados
DESCASC
Racha de viento máxima en m/sg (hora)
DESCASC
Velocidad máxima media en intervalos de 10 minutos(hora)
DESCASC
Precipitaciones diarias en mm
DESCASC
Precipitaciones de 00:00 a 06:00 en mm
DESCASC
Precipitaciones de 06:00 a 12:00 en mm
DESCASC
Precipitaciones de 12:00 a 18:00 en mm
DESCASC
Precipitaciones de 18:00 a 24:00 en mm
DESCASC

Gráficas

Temp. máximas Temp. mínimas Temp. medias Precipitaciones Rachas de viento máximas Velocidades máximas media en intervalos de 10 minutos

Datos horarios

Fecha y hora oficial Temperatura (ºC) Velocidad del viento (km/h) Dirección del viento Racha (km/h) Dirección de racha Precipitación (mm) Presión (hPa) Tendencia (hPa) Humedad (%)
2020-08-13 23:00:00 25.3 3 Sur 10 Sudeste 0 -- -- 22
2020-08-13 22:00:00 27.8 8 Oeste 30 Oeste 0 -- -- 16
2020-08-13 21:00:00 28.3 13 Oeste 28 Oeste 0 -- -- 18
2020-08-13 20:00:00 29.9 15 Oeste 28 Oeste 0 -- -- 22
2020-08-13 19:00:00 32.5 17 Oeste 29 Oeste 0 -- -- 19
2020-08-13 18:00:00 33.4 17 Oeste 30 Oeste 0 -- -- 20
2020-08-13 17:00:00 33.6 22 Oeste 36 Oeste 0 -- -- 20
2020-08-13 16:00:00 34.6 8 Norte 25 Oeste 0 -- -- 30
2020-08-13 15:00:00 34.6 12 Noroeste 21 Oeste 0 -- -- 15
2020-08-13 14:00:00 32.6 10 Este 20 Este 0 -- -- 36
2020-08-13 13:00:00 30.9 7 Sudeste 14 Sudeste 0 -- -- 48
2020-08-13 12:00:00 29.2 8 Este 18 Sudeste 0 -- -- 51
2020-08-13 11:00:00 29.3 6 Este 10 Este 0 -- -- 50
2020-08-13 10:00:00 28.7 5 Este 9 Sudeste 0 -- -- 47
2020-08-13 09:00:00 25.2 3 Noroeste 10 Oeste 0 -- -- 42
2020-08-13 08:00:00 21.2 3 Oeste 12 Sudeste 0 -- -- 72
2020-08-13 07:00:00 21.2 5 Oeste 10 Sudoeste 0 -- -- 72
2020-08-13 06:00:00 21.6 5 Sur 10 Sudeste 0 -- -- 77
2020-08-13 05:00:00 23.3 11 Sudeste 18 Sur 0 -- -- 54
2020-08-13 04:00:00 22 6 Sudoeste 9 Oeste 0 -- -- 45
2020-08-13 03:00:00 22.8 4 Oeste 17 Sudeste 0 -- -- 45
2020-08-13 02:00:00 24.1 8 Sur 15 Sur 0 -- -- 46
2020-08-13 01:00:00 26.2 7 Sudeste 15 Norte 0 -- -- 22
2020-08-13 00:00:00 25.3 6 Sur 14 Nordeste 0 -- -- 22
2020-08-12 23:00:00 25.6 3 Oeste 27 Oeste 0 -- -- 22
2020-08-12 22:00:00 26.3 7 Oeste 13 Oeste 0 -- -- 21
2020-08-12 21:00:00 26.9 5 Nordeste 33 Oeste 0 -- -- 22
2020-08-12 20:00:00 28.2 20 Oeste 33 Sudoeste 0 -- -- 26
2020-08-12 19:00:00 31.1 17 Oeste 31 Sudoeste 0 -- -- 25
2020-08-12 18:00:00 31.4 15 Oeste 27 Noroeste 0 -- -- 29
2020-08-12 17:00:00 31.5 12 Oeste 30 Oeste 0 -- -- 27
2020-08-12 16:00:00 30.9 21 Oeste 33 Sudoeste 0 -- -- 36
2020-08-12 15:00:00 30.6 20 Oeste 33 Oeste 0 -- -- 38
2020-08-12 14:00:00 30.8 13 Sudoeste 22 Sur 0 -- -- 38
2020-08-12 13:00:00 30 12 Sudeste 23 Sudeste 0 -- -- 56
2020-08-12 12:00:00 29.7 14 Este 20 Sudeste 0 -- -- 57
2020-08-12 11:00:00 28.3 6 Este 14 Este 0 -- -- 63
2020-08-12 10:00:00 27.5 7 Sudeste 14 Este 0 -- -- 69
2020-08-12 09:00:00 25.3 5 Este 12 Sudeste 0 -- -- 76
2020-08-12 08:00:00 23.2 8 Oeste 10 Oeste 0 -- -- 77
2020-08-12 07:00:00 23.2 6 Sudoeste 12 Oeste 0 -- -- 80
2020-08-12 06:00:00 23.4 5 Sudeste 10 Oeste 0 -- -- 82
2020-08-12 05:00:00 23.7 4 Oeste 19 Sudoeste 0 -- -- 84
2020-08-12 04:00:00 24 11 Sudoeste 16 Sudoeste 0 -- -- 85
2020-08-12 03:00:00 24.1 3 Sur 6 Oeste 0 -- -- 85
2020-08-12 02:00:00 24.5 4 Oeste 7 Oeste 0 -- -- 85
2020-08-12 01:00:00 24.6 5 Sur 9 Sudeste 0 -- -- 83
2020-08-12 00:00:00 25 5 Sudoeste 10 Norte 0 -- -- 84
2020-08-11 23:00:00 25.6 3 Nordeste 8 Noroeste 0 -- -- 82
2020-08-11 22:00:00 25.7 4 Noroeste 18 Sudoeste 0 -- -- 81
2020-08-11 21:00:00 25.9 17 Sudoeste 27 Sudoeste 0 -- -- 81
2020-08-11 20:00:00 26.5 5 Nordeste 32 Sudoeste 0 -- -- 77
2020-08-11 19:00:00 27.8 10 Sudeste 19 Sudeste 0 -- -- 74
2020-08-11 18:00:00 27.8 12 Sudeste 19 Sudeste 0 -- -- 71
2020-08-11 17:00:00 29 10 Sudeste 18 Sudeste 0 -- -- 64
2020-08-11 16:00:00 28.7 11 Sudeste 26 Sudeste 0 -- -- 67
2020-08-11 15:00:00 28.9 6 Este 26 Sudeste 0 -- -- 67
2020-08-11 14:00:00 28.9 14 Este 26 Este 0 -- -- 65
2020-08-11 13:00:00 27.6 16 Este 25 Este 0 -- -- 71
2020-08-11 12:00:00 26.9 15 Este 28 Sudeste 0 -- -- 80
2020-08-11 11:00:00 25.3 17 Este 26 Sudeste 0 -- -- 88
2020-08-11 10:00:00 26.1 16 Este 27 Sudeste 0 -- -- 84
2020-08-11 09:00:00 25.3 10 Noroeste 22 Oeste 0.6 -- -- 69
2020-08-11 08:00:00 24.9 2 Nordeste 10 Sur 0 -- -- 79
2020-08-11 07:00:00 25.1 0 Calma 17 Norte 0 -- -- 76
2020-08-11 06:00:00 25.8 13 Noroeste 27 Sudoeste 0 -- -- 71
2020-08-11 05:00:00 27.8 2 Norte 15 Oeste 0 -- -- 43
2020-08-11 04:00:00 27.2 8 Oeste 13 Oeste 0 -- -- 43
2020-08-11 03:00:00 27.5 4 Sur 15 Sudoeste 0 -- -- 45
2020-08-11 02:00:00 28.1 5 Oeste 12 Oeste 0 -- -- 44
2020-08-11 01:00:00 28.9 8 Oeste 16 Oeste 0 -- -- 42
2020-08-11 00:00:00 27.4 9 Noroeste 18 Oeste 0 -- -- 55
2020-08-10 23:00:00 25.5 9 Oeste 22 Oeste 0 -- -- 69
2020-08-10 22:00:00 25 6 Oeste 22 Sudoeste 0.4 -- -- 76
2020-08-10 21:00:00 25.9 10 Sudoeste 58 Oeste 0.2 -- -- 74
2020-08-10 20:00:00 28 34 Sudoeste 51 Sudoeste 0 -- -- 67
2020-08-10 19:00:00 27.8 8 Sur 20 Sudeste 0 -- -- 64
2020-08-10 18:00:00 28.8 6 Sudeste 21 Este 0 -- -- 52
2020-08-10 17:00:00 27.5 8 Este 24 Sudeste 0 -- -- 64
2020-08-10 16:00:00 29.2 8 Norte 28 Oeste 0 -- -- 58
2020-08-10 15:00:00 30.1 10 Sudoeste 31 Sudoeste 0 -- -- 52
2020-08-10 14:00:00 30.8 12 Sudeste 24 Sudeste 0 -- -- 54
2020-08-10 13:00:00 31.1 15 Sudeste 26 Sudeste 0 -- -- 45
2020-08-10 12:00:00 30.8 6 Nordeste 28 Sudoeste 0 -- -- 55
2020-08-10 11:00:00 28.7 16 Sudeste 24 Sudeste 0 -- -- 58
2020-08-10 10:00:00 28.2 5 Nordeste 12 Este 0 -- -- 62
2020-08-10 09:00:00 26.6 3 Noroeste 9 Sudoeste 0 -- -- 51
2020-08-10 08:00:00 27.3 9 Sudoeste 21 Sudoeste 0 -- -- 43
2020-08-10 07:00:00 27 4 Noroeste 11 Sudeste 0 -- -- 35
2020-08-10 06:00:00 26.9 6 Sudeste 9 Sudeste 0 -- -- 42
2020-08-10 05:00:00 25.2 3 Oeste 8 Sudoeste 0 -- -- 57
2020-08-10 04:00:00 25.8 4 Sur 10 Sur 0 -- -- 57
2020-08-10 03:00:00 24.1 0 Calma 9 Sur 0 -- -- 76
2020-08-10 02:00:00 24.7 4 Sur 8 Sudeste 0 -- -- 80
2020-08-10 01:00:00 25.1 2 Sur 10 Sur 0 -- -- 75
2020-08-10 00:00:00 25.3 5 Sur 11 Sudeste 0 -- -- 69
2020-08-09 23:00:00 25.4 6 Sudeste 18 Oeste 0 -- -- 66
2020-08-09 22:00:00 25.3 5 Oeste 8 Sur 0 -- -- 65
2020-08-09 21:00:00 26.4 2 Sur 6 Sudeste 0 -- -- 60
2020-08-09 20:00:00 27.4 4 Este 15 Sudeste 0 -- -- 56
2020-08-09 19:00:00 29.2 8 Sudeste 12 Sudeste 0 -- -- 49
2020-08-09 18:00:00 29.9 9 Sudeste 17 Sudeste 0 -- -- 39
2020-08-09 17:00:00 30.7 8 Sudeste 15 Sudeste 0 -- -- 37
2020-08-09 16:00:00 30.4 10 Sudeste 17 Este 0 -- -- 38
2020-08-09 15:00:00 30.8 9 Sudeste 21 Sudeste 0 -- -- 40
2020-08-09 14:00:00 30.4 14 Sudeste 20 Sudeste 0 -- -- 41
2020-08-09 13:00:00 31.9 10 Este 20 Este 0 -- -- 39
2020-08-09 12:00:00 31.8 10 Este 17 Este 0 -- -- 38
2020-08-09 11:00:00 31.2 9 Este 16 Sudeste 0 -- -- 41
2020-08-09 10:00:00 30.3 6 Este 10 Este 0 -- -- 41
2020-08-09 09:00:00 29 6 Sudeste 9 Sudeste 0 -- -- 37
2020-08-09 08:00:00 25.4 0 Calma 6 Sudoeste 0 -- -- 42
2020-08-09 07:00:00 24.8 5 Sur 9 Sur 0 -- -- 45
2020-08-09 06:00:00 25.6 7 Sur 11 Sur 0 -- -- 42
2020-08-09 05:00:00 26.4 5 Sur 13 Sudeste 0 -- -- 48
2020-08-09 04:00:00 26.9 3 Sudoeste 10 Sur 0 -- -- 44
2020-08-09 03:00:00 26.1 4 Sur 9 Sur 0 -- -- 49
2020-08-09 02:00:00 25.1 2 Noroeste 5 Norte 0 -- -- 57
2020-08-09 01:00:00 24.1 0 Calma 12 Oeste 0 -- -- 75
2020-08-09 00:00:00 24.1 3 Sudoeste 8 Sur 0 -- -- 78
2020-08-08 23:00:00 24.7 0 Calma 7 Oeste 0 -- -- 77
2020-08-08 22:00:00 25 3 Sur 8 Sudeste 0 -- -- 77
2020-08-08 21:00:00 25.5 8 Sudeste 10 Sudeste 0 -- -- 74
2020-08-08 20:00:00 26.8 6 Sudeste 14 Sudeste 0 -- -- 63
2020-08-08 19:00:00 27.6 7 Sudeste 19 Sudeste 0 -- -- 59
2020-08-08 18:00:00 28.5 11 Sudeste 18 Sudeste 0 -- -- 51
2020-08-08 17:00:00 30 6 Sudeste 19 Sudeste 0 -- -- 42
2020-08-08 16:00:00 29.7 11 Este 19 Nordeste 0 -- -- 38
2020-08-08 15:00:00 30.4 9 Sudeste 20 Sudeste 0 -- -- 34
2020-08-08 14:00:00 31.2 11 Este 21 Sudeste 0 -- -- 30
2020-08-08 13:00:00 31.4 9 Sudeste 17 Este 0 -- -- 28
2020-08-08 12:00:00 30.6 10 Sudeste 16 Sudeste 0 -- -- 28
2020-08-08 11:00:00 30.2 9 Sudeste 14 Este 0 -- -- 27
2020-08-08 10:00:00 30.1 6 Este 10 Este 0 -- -- 31
2020-08-08 09:00:00 27.6 3 Noroeste 5 Noroeste 0 -- -- 35
2020-08-08 08:00:00 24.6 0 Calma 6 Sur 0 -- -- 44
2020-08-08 07:00:00 24.3 5 Sur 9 Sudeste 0 -- -- 48
2020-08-08 06:00:00 24.4 4 Sur 10 Sur 0 -- -- 46
2020-08-08 05:00:00 24.3 0 Calma 9 Noroeste 0 -- -- 54
2020-08-08 04:00:00 24.7 3 Oeste 10 Oeste 0 -- -- 52
2020-08-08 03:00:00 23.2 5 Oeste 6 Oeste 0 -- -- 69
2020-08-08 02:00:00 23.2 0 Calma 6 Sur 0 -- -- 71
2020-08-08 01:00:00 23.7 3 Sudoeste 11 Sudoeste 0 -- -- 71
2020-08-08 00:00:00 23.9 6 Sur 9 Sudoeste 0 -- -- 71
2020-08-07 23:00:00 24.5 2 Sudeste 9 Oeste 0 -- -- 72
2020-08-07 22:00:00 24.8 4 Noroeste 9 Sudeste 0 -- -- 73
2020-08-07 21:00:00 25.7 4 Sudeste 10 Sudeste 0 -- -- 72
2020-08-07 20:00:00 26.8 6 Sudeste 11 Sudeste 0 -- -- 60
2020-08-07 19:00:00 28.6 5 Sudeste 17 Sudeste 0 -- -- 51
2020-08-07 18:00:00 28.5 9 Sudeste 15 Este 0 -- -- 52
2020-08-07 17:00:00 29.1 12 Este 19 Este 0 -- -- 45
2020-08-07 16:00:00 29.2 10 Sudeste 18 Este 0 -- -- 51
2020-08-07 15:00:00 29.3 9 Sudeste 21 Sudeste 0 -- -- 47
2020-08-07 14:00:00 29.5 11 Este 26 Este 0 -- -- 53
2020-08-07 13:00:00 28.3 13 Sudeste 23 Sudeste 0 -- -- 60
2020-08-07 12:00:00 28.2 13 Sudeste 20 Sudeste 0 -- -- 60
2020-08-07 11:00:00 28.5 10 Sudeste 19 Sudeste 0 -- -- 56
2020-08-07 10:00:00 27.8 8 Sudeste 14 Sudeste 0 -- -- 60
2020-08-07 09:00:00 26 3 Nordeste 13 Sudoeste 0 -- -- 68
2020-08-07 08:00:00 23.1 2 Sur 7 Sur 0 -- -- 80
2020-08-07 07:00:00 23.2 2 Sudeste 8 Oeste 0 -- -- 77
2020-08-07 06:00:00 23.6 3 Oeste 10 Sur 0 -- -- 76
2020-08-07 05:00:00 24.1 4 Sur 14 Noroeste 0 -- -- 73
2020-08-07 04:00:00 23.8 4 Noroeste 10 Oeste 0 -- -- 76
2020-08-07 03:00:00 23.6 6 Oeste 8 Oeste 0 -- -- 78
2020-08-07 02:00:00 23.8 4 Sudoeste 6 Sudoeste 0 -- -- 79
2020-08-07 01:00:00 24.2 3 Oeste 7 Noroeste 0 -- -- 78
2020-08-07 00:00:00 25 0 Calma 12 Sudoeste 0 -- -- 71
2020-08-06 23:00:00 25.2 8 Sudoeste 14 Sudoeste 0 -- -- 67
2020-08-06 22:00:00 25 5 Sur 10 Sudeste 0 -- -- 74
2020-08-06 21:00:00 25.6 6 Sudeste 13 Sudeste 0 -- -- 72
2020-08-06 20:00:00 26.2 9 Sudeste 20 Sudeste 0 -- -- 70
2020-08-06 19:00:00 27.7 10 Sudeste 19 Sudeste 0 -- -- 63
2020-08-06 18:00:00 28.9 10 Sudeste 24 Sudeste 0 -- -- 55
2020-08-06 17:00:00 29 15 Sudeste 27 Sudeste 0 -- -- 51
2020-08-06 16:00:00 29.8 12 Este 30 Sudeste 0 -- -- 51
2020-08-06 15:00:00 29.9 19 Sudeste 30 Sudeste 0 -- -- 53
2020-08-06 14:00:00 29.4 19 Sudeste 29 Sudeste 0 -- -- 55
2020-08-06 13:00:00 30 19 Este 28 Sudeste 0 -- -- 50
2020-08-06 12:00:00 30.3 14 Este 26 Nordeste 0 -- -- 46
2020-08-06 11:00:00 29.9 7 Sudeste 13 Sudeste 0 -- -- 51
2020-08-06 10:00:00 29.4 5 Este 10 Este 0 -- -- 56
2020-08-06 09:00:00 27.4 3 Este 5 Nordeste 0 -- -- 53
2020-08-06 08:00:00 24.1 0 Calma 5 Noroeste 0 -- -- 67
2020-08-06 07:00:00 23.1 0 Calma 4 Sur 0 -- -- 72
2020-08-06 06:00:00 23.7 2 Sudoeste 10 Oeste 0 -- -- 72
2020-08-06 05:00:00 23.3 2 Oeste 9 Oeste 0 -- -- 80
2020-08-06 04:00:00 23.4 0 Calma 6 Oeste 0 -- -- 81
2020-08-06 03:00:00 23.6 3 Sur 6 Sur 0 -- -- 80
2020-08-06 02:00:00 24.2 5 Sur 8 Sur 0 -- -- 80
2020-08-06 01:00:00 24.3 0 Calma 4 Sur 0 -- -- 76
2020-08-06 00:00:00 24.7 2 Sudeste 9 Sur 0 -- -- 74
2020-08-05 23:00:00 25.1 4 Sur 9 Sur 0 -- -- 76
2020-08-05 22:00:00 25.9 0 Calma 6 Sudoeste 0 -- -- 62
2020-08-05 21:00:00 26.6 0 Calma 14 Sudeste 0 -- -- 58
2020-08-05 20:00:00 27.2 8 Sudeste 15 Sudeste 0 -- -- 57
2020-08-05 19:00:00 29 6 Sudeste 13 Nordeste 0 -- -- 56
2020-08-05 18:00:00 29 6 Sudeste 19 Sudeste 0 -- -- 57
2020-08-05 17:00:00 29.5 11 Este 23 Este 0 -- -- 56
2020-08-05 16:00:00 29.4 16 Este 30 Este 0 -- -- 53
2020-08-05 15:00:00 29.8 17 Este 31 Sudeste 0 -- -- 51
2020-08-05 14:00:00 30.9 18 Este 30 Sudeste 0 -- -- 39
2020-08-05 13:00:00 30.4 14 Este 26 Sudeste 0 -- -- 41
2020-08-05 12:00:00 30.2 12 Este 18 Este 0 -- -- 42
2020-08-05 11:00:00 29.7 8 Sudeste 14 Este 0 -- -- 51
2020-08-05 10:00:00 28.7 7 Este 13 Sudeste 0 -- -- 57
2020-08-05 09:00:00 27.1 8 Sudeste 11 Sudeste 0 -- -- 63
2020-08-05 08:00:00 24.3 4 Sur 5 Oeste 0 -- -- 73
2020-08-05 07:00:00 23.7 0 Calma 5 Sudeste 0 -- -- 72
2020-08-05 06:00:00 23.5 2 Sur 10 Oeste 0 -- -- 77
2020-08-05 05:00:00 23.5 7 Oeste 9 Oeste 0 -- -- 91
2020-08-05 04:00:00 23.7 0 Calma 4 Oeste 0 -- -- 90
2020-08-05 03:00:00 24.3 2 Sur 10 Sudeste 0 -- -- 91
2020-08-05 02:00:00 24.5 7 Sudeste 12 Sudeste 0 -- -- 91
2020-08-05 01:00:00 24.8 6 Este 9 Este 0 -- -- 90
2020-08-05 00:00:00 24.7 7 Sudeste 10 Sudeste 0 -- -- 90
2020-08-04 23:00:00 24.6 5 Sudeste 8 Sudeste 0 -- -- 89
2020-08-04 22:00:00 25.1 0 Calma 6 Sudeste 0 -- -- 85
2020-08-04 21:00:00 25.1 5 Sudeste 12 Sudeste 0 -- -- 85
2020-08-04 20:00:00 25.9 6 Este 14 Sudeste 0 -- -- 83
2020-08-04 19:00:00 27.1 7 Este 15 Sudeste 0 -- -- 77
2020-08-04 18:00:00 27.3 10 Sudeste 17 Sudeste 0 -- -- 73
2020-08-04 17:00:00 26.8 10 Este 19 Sudeste 0 -- -- 77
2020-08-04 16:00:00 28 14 Sudeste 22 Este 0 -- -- 72
2020-08-04 15:00:00 27.7 12 Este 28 Sudeste 0 -- -- 74
2020-08-04 14:00:00 28.1 16 Este 26 Este 0 -- -- 73
2020-08-04 13:00:00 26.6 18 Sudeste 25 Este 0 -- -- 80
2020-08-04 12:00:00 27.1 17 Este 26 Este 0 -- -- 78
2020-08-04 11:00:00 28.1 17 Este 27 Este 0 -- -- 72
2020-08-04 10:00:00 27.7 15 Este 21 Este 0 -- -- 69
2020-08-04 09:00:00 26.4 8 Este 13 Sudeste 0 -- -- 73
2020-08-04 08:00:00 24.3 0 Calma 6 Sudoeste 0 -- -- 82
2020-08-04 07:00:00 24.1 2 Este 14 Sudeste 0 -- -- 84
2020-08-04 06:00:00 24.5 4 Nordeste 12 Este 0 -- -- 84
2020-08-04 05:00:00 24.5 4 Nordeste 9 Nordeste 0 -- -- 85
2020-08-04 04:00:00 24.4 2 Norte 17 Este 0 -- -- 87
2020-08-04 03:00:00 24.7 9 Este 15 Este 0 -- -- 91
2020-08-04 02:00:00 24.7 9 Este 17 Sudeste 0 -- -- 90
2020-08-04 01:00:00 24.9 7 Sudeste 13 Sudeste 0 -- -- 85
2020-08-04 00:00:00 25.1 0 Calma 7 Sudeste 0 -- -- 79
2020-08-03 23:00:00 25.2 3 Sur 14 Sudeste 0 -- -- 81
2020-08-03 22:00:00 25.6 8 Sudeste 12 Sudeste 0 -- -- 76
2020-08-03 21:00:00 26.7 6 Este 12 Este 0 -- -- 65
2020-08-03 20:00:00 27.4 4 Sudeste 12 Este 0 -- -- 70
2020-08-03 19:00:00 28.4 8 Sudeste 18 Sudeste 0 -- -- 61
2020-08-03 18:00:00 28.9 10 Sudeste 19 Sudeste 0 -- -- 62
2020-08-03 17:00:00 28.9 13 Sudeste 20 Este 0 -- -- 64
2020-08-03 16:00:00 29.2 9 Este 18 Sudeste 0 -- -- 64
2020-08-03 15:00:00 28.4 10 Sudeste 19 Sudeste 0 -- -- 66
2020-08-03 14:00:00 28.6 11 Sudeste 21 Sudeste 0 -- -- 67
2020-08-03 13:00:00 27.8 11 Este 22 Este 0 -- -- 71
2020-08-03 12:00:00 27.4 15 Este 24 Este 0 -- -- 74
2020-08-03 11:00:00 26.8 14 Este 21 Este 0 -- -- 76
2020-08-03 10:00:00 26.7 7 Este 13 Nordeste 0 -- -- 77
2020-08-03 09:00:00 24.5 5 Este 12 Sudeste 0 -- -- 88
2020-08-03 08:00:00 23.5 2 Sudeste 9 Sudeste 0 -- -- 93
2020-08-03 07:00:00 22.8 5 Sur 9 Sur 0 -- -- 93
2020-08-03 06:00:00 22.8 0 Calma 9 Sudoeste 0 -- -- 87
2020-08-03 05:00:00 23.4 2 Oeste 6 Oeste 0 -- -- 89
2020-08-03 04:00:00 24.1 3 Sudeste 8 Sudoeste 0 -- -- 87
2020-08-03 03:00:00 24.5 4 Sur 7 Sur 0 -- -- 83
2020-08-03 02:00:00 25 3 Sudeste 8 Sudoeste 0 -- -- 78
2020-08-03 01:00:00 25.6 5 Sur 14 Sudeste 0 -- -- 74
2020-08-03 00:00:00 26.3 3 Sur 9 Oeste 0 -- -- 66
2020-08-02 23:00:00 27 5 Oeste 6 Oeste 0 -- -- 59
2020-08-02 22:00:00 27.8 3 Oeste 8 Este 0 -- -- 55
2020-08-02 21:00:00 29.7 2 Sur 14 Sudeste 0 -- -- 47
2020-08-02 20:00:00 31.7 9 Sudeste 17 Sudeste 0 -- -- 39
2020-08-02 19:00:00 34.1 6 Sudeste 15 Sudeste 0 -- -- 34
2020-08-02 18:00:00 34.4 6 Este 19 Sudeste 0 -- -- 34
2020-08-02 17:00:00 34.3 9 Sudeste 15 Este 0 -- -- 36
2020-08-02 16:00:00 31.8 9 Sudeste 18 Sudeste 0 -- -- 53
2020-08-02 15:00:00 31.5 12 Sudeste 30 Sudeste 0 -- -- 61
2020-08-02 14:00:00 34.3 18 Sudeste 34 Oeste 0 -- -- 50
2020-08-02 13:00:00 41 20 Oeste 36 Oeste 0 -- -- 14
2020-08-02 12:00:00 39.8 13 Oeste 28 Oeste 0 -- -- 15
2020-08-02 11:00:00 35.9 6 Este 10 Sudeste 0 -- -- 48
2020-08-02 10:00:00 34.8 3 Este 7 Este 0 -- -- 41
2020-08-02 09:00:00 32.6 4 Sudeste 9 Sudeste 0 -- -- 44
2020-08-02 08:00:00 28.7 3 Sudoeste 6 Sudeste 0 -- -- 32
2020-08-02 07:00:00 31.3 3 Sudeste 10 Este 0 -- -- 30
2020-08-02 06:00:00 31.6 6 Oeste 12 Oeste 0 -- -- 24
2020-08-02 05:00:00 30.1 2 Oeste 16 Oeste 0 -- -- 34
2020-08-02 04:00:00 26.5 6 Oeste 14 Oeste 0 -- -- 53
2020-08-02 03:00:00 24.6 7 Oeste 13 Oeste 0 -- -- 79
2020-08-02 02:00:00 25.2 8 Oeste 11 Oeste 0 -- -- 81
2020-08-02 01:00:00 26.5 0 Calma 9 Sudeste 0 -- -- 71
2020-08-02 00:00:00 26.6 0 Calma 9 Oeste 0 -- -- 69
2020-08-01 23:00:00 26.2 4 Sur 9 Sudeste 0 -- -- 79
2020-08-01 22:00:00 28.2 6 Sudeste 11 Sudeste 0 -- -- 74
2020-08-01 21:00:00 28.6 4 Noroeste 10 Oeste 0 -- -- 68
2020-08-01 20:00:00 29.6 5 Sudeste 11 Sudeste 0 -- -- 67
2020-08-01 19:00:00 31.7 6 Este 17 Este 0 -- -- 60
2020-08-01 18:00:00 32.8 10 Sudeste 19 Sudeste 0 -- -- 54
2020-08-01 17:00:00 32.6 9 Este 13 Este 0 -- -- 57
2020-08-01 16:00:00 31.6 8 Este 15 Este 0 -- -- 62
2020-08-01 15:00:00 31.5 9 Nordeste 14 Nordeste 0 -- -- 64
2020-08-01 14:00:00 30.9 7 Este 18 Nordeste 0 -- -- 66
2020-08-01 13:00:00 31.4 10 Este 19 Este 0 -- -- 60
2020-08-01 12:00:00 31 8 Sudeste 17 Sudeste 0 -- -- 63
2020-08-01 11:00:00 30.2 6 Este 17 Sudeste 0 -- -- 68
2020-08-01 10:00:00 29.2 8 Este 16 Sudeste 0 -- -- 73
2020-08-01 09:00:00 27.9 5 Sudeste 18 Sudeste 0 -- -- 74
2020-08-01 08:00:00 26.5 6 Oeste 25 Sudeste 0 -- -- 70
2020-08-01 07:00:00 33.1 4 Sur 9 Sudeste 0 -- -- 31
2020-08-01 06:00:00 31.3 5 Sur 14 Oeste 0 -- -- 36
2020-08-01 05:00:00 26.8 8 Oeste 14 Sur 0 -- -- 62
2020-08-01 04:00:00 27.3 3 Oeste 14 Oeste 0 -- -- 61
2020-08-01 03:00:00 26.9 6 Sudoeste 19 Sur 0 -- -- 68
2020-08-01 02:00:00 27.2 4 Oeste 10 Sudeste 0 -- -- 68
2020-08-01 01:00:00 26.7 3 Noroeste 10 Sur 0 -- -- 71
2020-08-01 00:00:00 27.3 2 Sudeste 10 Sur 0 -- -- 72
2020-07-31 23:00:00 27.9 3 Sudeste 5 Sudeste 0 -- -- 64
2020-07-31 22:00:00 28.9 2 Este 14 Noroeste 0 -- -- 62
2020-07-31 21:00:00 28.6 0 Calma 6 Sudeste 0 -- -- 69
2020-07-31 20:00:00 28.9 3 Este 13 Este 0 -- -- 66
2020-07-31 19:00:00 30.9 5 Nordeste 13 Este 0 -- -- 62
2020-07-31 18:00:00 30.6 7 Nordeste 17 Sudeste 0 -- -- 61
2020-07-31 17:00:00 31.5 9 Sudeste 21 Sudeste 0 -- -- 58
2020-07-31 16:00:00 32.1 10 Este 19 Este 0 -- -- 58
2020-07-31 15:00:00 30.2 14 Este 26 Sudeste 0 -- -- 66
2020-07-31 14:00:00 30.1 13 Sudeste 26 Sudeste 0 -- -- 65
2020-07-31 13:00:00 29.8 9 Este 21 Este 0 -- -- 67
2020-07-31 12:00:00 30 12 Sudeste 22 Sudeste 0 -- -- 64
2020-07-31 11:00:00 29.5 9 Este 16 Este 0 -- -- 64
2020-07-31 10:00:00 29 10 Sudeste 16 Sudeste 0 -- -- 65
2020-07-31 09:00:00 28 5 Nordeste 7 Nordeste 0 -- -- 61
2020-07-31 08:00:00 25.5 5 Sur 8 Sur 0 -- -- 69
2020-07-31 07:00:00 24.8 8 Oeste 11 Oeste 0 -- -- 70
2020-07-31 06:00:00 25.3 6 Sur 10 Sur 0 -- -- 68
2020-07-31 05:00:00 25 0 Calma 5 Sudeste 0 -- -- 73
2020-07-31 04:00:00 25.1 0 Calma 10 Oeste 0 -- -- 76
2020-07-31 03:00:00 25.1 6 Sudoeste 11 Oeste 0 -- -- 78
2020-07-31 02:00:00 25.5 4 Sur 7 Oeste 0 -- -- 77
2020-07-31 01:00:00 24.9 6 Noroeste 11 Oeste 0 -- -- 87
2020-07-31 00:00:00 25.4 2 Nordeste 9 Sudeste 0 -- -- 87
2020-07-30 23:00:00 25.4 6 Sudeste 10 Sur 0 -- -- 87
2020-07-30 22:00:00 26 2 Nordeste 9 Nordeste 0 -- -- 84
2020-07-30 21:00:00 26.5 3 Norte 9 Sudeste 0 -- -- 82
2020-07-30 20:00:00 27 4 Este 18 Sudeste 0 -- -- 80
2020-07-30 19:00:00 28 10 Sudeste 24 Este 0 -- -- 76
2020-07-30 18:00:00 28.8 16 Sudeste 24 Sudeste 0 -- -- 72
2020-07-30 17:00:00 29.5 12 Sudeste 21 Sudeste 0 -- -- 68
2020-07-30 16:00:00 30 10 Este 23 Este 0 -- -- 63
2020-07-30 15:00:00 30.8 11 Sudeste 23 Este 0 -- -- 63
2020-07-30 14:00:00 31.7 9 Este 20 Sudeste 0 -- -- 60
2020-07-30 13:00:00 32.1 6 Norte 17 Nordeste 0 -- -- 58
2020-07-30 12:00:00 31.6 10 Este 18 Sudeste 0 -- -- 59
2020-07-30 11:00:00 28 7 Este 19 Este 0 -- -- 72
2020-07-30 10:00:00 26.5 6 Este 14 Nordeste 0 -- -- 80
2020-07-30 09:00:00 25 8 Sudeste 13 Sudeste 0 -- -- 90
2020-07-30 08:00:00 24.3 2 Nordeste 5 Norte 0 -- -- 89
2020-07-30 07:00:00 23.9 4 Sudeste 10 Oeste 0 -- -- 88
2020-07-30 06:00:00 24 5 Oeste 10 Noroeste 0 -- -- 89
2020-07-30 05:00:00 24.2 4 Oeste 8 Noroeste 0 -- -- 89
2020-07-30 04:00:00 24.5 0 Calma 13 Sudeste 0 -- -- 86
2020-07-30 03:00:00 25.8 8 Sudeste 17 Oeste 0 -- -- 77
2020-07-30 02:00:00 26 5 Nordeste 32 Sudoeste 0 -- -- 81
2020-07-30 01:00:00 24.8 5 Sudeste 27 Este 0 -- -- 87
2020-07-30 00:00:00 24.7 14 Este 25 Este 0 -- -- 92
2020-07-29 23:00:00 24.5 12 Este 18 Sudeste 0 -- -- 91
2020-07-29 22:00:00 24.9 10 Sudeste 16 Sudeste 0 -- -- 91
2020-07-29 21:00:00 25.5 9 Sudeste 16 Sudeste 0 -- -- 87
2020-07-29 20:00:00 26 10 Sudeste 17 Sudeste 0 -- -- 84
2020-07-29 19:00:00 27.8 8 Sudeste 17 Sudeste 0 -- -- 76
2020-07-29 18:00:00 28.9 10 Sudeste 21 Sudeste 0 -- -- 70
2020-07-29 17:00:00 28.9 12 Sudeste 20 Sudeste 0 -- -- 69
2020-07-29 16:00:00 29.6 13 Sudeste 21 Sudeste 0 -- -- 65
2020-07-29 15:00:00 30.3 12 Sudeste 22 Sudeste 0 -- -- 61
2020-07-29 14:00:00 29.8 14 Sudeste 24 Sudeste 0 -- -- 60
2020-07-29 13:00:00 29.5 15 Sudeste 21 Este 0 -- -- 67
2020-07-29 12:00:00 27.9 6 Sudeste 17 Sudeste 0 -- -- 71
2020-07-29 11:00:00 27.7 8 Este 18 Sudeste 0 -- -- 72
2020-07-29 10:00:00 28.3 8 Este 15 Este 0 -- -- 60
2020-07-29 09:00:00 27.5 8 Este 13 Sudeste 0 -- -- 52
2020-07-29 08:00:00 24.2 7 Oeste 9 Oeste 0 -- -- 63
2020-07-29 07:00:00 23.1 3 Sudoeste 7 Sur 0 -- -- 69
2020-07-29 06:00:00 23.5 6 Sur 9 Sur 0 -- -- 67
2020-07-29 05:00:00 24.6 0 Calma 7 Sudeste 0 -- -- 54
2020-07-29 04:00:00 25.2 5 Sudoeste 9 Sudoeste 0 -- -- 52
2020-07-29 03:00:00 25.3 5 Sudoeste 10 Sudoeste 0 -- -- 53
2020-07-29 02:00:00 25.3 3 Sur 8 Sur 0 -- -- 53
2020-07-29 01:00:00 25.8 3 Oeste 9 Sudeste 0 -- -- 54
2020-07-29 00:00:00 25.9 0 Calma 5 Sudeste 0 -- -- 61
2020-07-28 23:00:00 26.7 2 Sudeste 6 Sudoeste 0 -- -- 59
2020-07-28 22:00:00 27.1 0 Calma 6 Sur 0 -- -- 60
2020-07-28 21:00:00 28.1 0 Calma 4 Nordeste 0 -- -- 66
2020-07-28 20:00:00 29.3 0 Calma 7 Este 0 -- -- 65
2020-07-28 19:00:00 30 4 Este 8 Este 0 -- -- 63
2020-07-28 18:00:00 30 5 Este 14 Este 0 -- -- 62
2020-07-28 17:00:00 30 9 Este 15 Este 0 -- -- 60
2020-07-28 16:00:00 30 9 Este 19 Este 0 -- -- 61
2020-07-28 15:00:00 29.6 13 Este 21 Sudeste 0 -- -- 62
2020-07-28 14:00:00 29.7 12 Sudeste 22 Sudeste 0 -- -- 60
2020-07-28 13:00:00 29.6 12 Sudeste 22 Sudeste 0 -- -- 63
2020-07-28 12:00:00 29.8 12 Sudeste 18 Sudeste 0 -- -- 62
2020-07-28 11:00:00 29.2 8 Este 12 Este 0 -- -- 63
2020-07-28 10:00:00 27.6 8 Este 14 Sudeste 0 -- -- 69
2020-07-28 09:00:00 26.1 3 Este 9 Este 0 -- -- 73
2020-07-28 08:00:00 23.9 3 Sudeste 9 Oeste 0 -- -- 76
2020-07-28 07:00:00 23.3 0 Calma 8 Este 0 -- -- 79
2020-07-28 06:00:00 23.8 3 Sudoeste 8 Sudeste 0 -- -- 73
2020-07-28 05:00:00 23.8 2 Noroeste 12 Oeste 0 -- -- 74
2020-07-28 04:00:00 25.4 5 Sudeste 19 Oeste 0 -- -- 74
2020-07-28 03:00:00 23.3 6 Oeste 9 Oeste 0 -- -- 83
2020-07-28 02:00:00 23.9 2 Sur 10 Oeste 0 -- -- 82
2020-07-28 01:00:00 24 5 Oeste 12 Sudeste 0 -- -- 81
2020-07-28 00:00:00 24 5 Noroeste 9 Oeste 0 -- -- 83
2020-07-27 23:00:00 24.5 3 Oeste 5 Oeste 0 -- -- 81
2020-07-27 22:00:00 25.3 3 Norte 9 Noroeste 0 -- -- 79
2020-07-27 21:00:00 26.6 7 Noroeste 10 Noroeste 0 -- -- 72
2020-07-27 20:00:00 27.7 5 Este 14 Sudeste 0 -- -- 67
2020-07-27 19:00:00 28.6 10 Este 17 Este 0 -- -- 63
2020-07-27 18:00:00 29.6 10 Este 19 Sur 0 -- -- 63
2020-07-27 17:00:00 30 8 Sudeste 22 Sudoeste 0 -- -- 60
2020-07-27 16:00:00 30.7 9 Sur 26 Sudeste 0 -- -- 59
2020-07-27 15:00:00 30.3 11 Sur 30 Sudoeste 0 -- -- 59
2020-07-27 14:00:00 31.1 11 Sudoeste 26 Sudeste 0 -- -- 58
2020-07-27 13:00:00 29.8 13 Sudeste 20 Sudeste 0 -- -- 61
2020-07-27 12:00:00 29.3 6 Este 30 Sudoeste 0 -- -- 57
2020-07-27 09:00:00 -- -- -- -- -- -- -- -- --
2020-07-27 08:00:00 -- -- -- -- -- -- -- -- --
2020-07-27 07:00:00 -- -- -- -- -- -- -- -- --
2020-07-27 06:00:00 25.4 3 Norte 14 Sur 0 -- -- 62
2020-07-27 05:00:00 26 4 Sur 12 Oeste 0 -- -- 60
2020-07-27 04:00:00 26.1 6 Oeste 10 Oeste 0 -- -- 60
2020-07-27 03:00:00 27.3 8 Sudeste 13 Sudeste 0 -- -- 57
2020-07-27 02:00:00 26.7 4 Sudeste 10 Sur 0 -- -- 62
2020-07-27 01:00:00 26.7 5 Sudoeste 15 Sudoeste 0 -- -- 62
2020-07-27 00:00:00 24.1 5 Sudoeste 9 Sudeste 0 -- -- 85
2020-07-26 23:00:00 24.2 3 Sudeste 8 Sudeste 0 -- -- 89
2020-07-26 22:00:00 24.6 4 Sudeste 8 Sudeste 0 -- -- 85
2020-07-26 21:00:00 26 5 Nordeste 10 Nordeste 0 -- -- 79
2020-07-26 20:00:00 27.7 6 Nordeste 10 Nordeste 0 -- -- 73
2020-07-26 19:00:00 28.8 6 Nordeste 15 Este 0 -- -- 69
2020-07-26 18:00:00 28.5 8 Este 16 Este 0 -- -- 70
2020-07-26 17:00:00 28.6 8 Sudeste 18 Sudeste 0 -- -- 68
2020-07-26 16:00:00 28.3 11 Sudeste 20 Sudeste 0 -- -- 70
2020-07-26 15:00:00 28 10 Sudeste 19 Sudeste 0 -- -- 69
2020-07-26 14:00:00 28.8 10 Este 19 Este 0 -- -- 62
2020-07-26 13:00:00 29.1 12 Este 20 Sudeste 0 -- -- 57
2020-07-26 12:00:00 29.7 8 Sudeste 15 Sudeste 0 -- -- 55
2020-07-26 11:00:00 29.6 10 Sudeste 14 Sudeste 0 -- -- 56
2020-07-26 10:00:00 30.6 4 Este 9 Sudeste 0 -- -- 47
2020-07-26 09:00:00 28.3 2 Este 5 Este 0 -- -- 58
2020-07-26 08:00:00 27.1 0 Calma 6 Oeste 0 -- -- 49
2020-07-26 07:00:00 26 4 Oeste 6 Oeste 0 -- -- 51
2020-07-26 06:00:00 25.5 2 Sur 6 Oeste 0 -- -- 58
2020-07-26 05:00:00 24 4 Sudeste 12 Oeste 0 -- -- 65
2020-07-26 04:00:00 22.8 0 Calma 10 Sur 0 -- -- 79
2020-07-26 03:00:00 23.6 4 Oeste 10 Noroeste 0 -- -- 77
2020-07-26 02:00:00 23.3 5 Oeste 7 Oeste 0 -- -- 79
2020-07-26 01:00:00 23.6 4 Sudoeste 6 Oeste 0 -- -- 81
2020-07-26 00:00:00 24 4 Oeste 8 Sudeste 0 -- -- 83
2020-07-25 23:00:00 24.7 7 Sudeste 10 Sur 0 -- -- 82
2020-07-25 22:00:00 25.8 2 Sur 5 Sudeste 0 -- -- 74
2020-07-25 21:00:00 28.2 0 Calma 4 Este 0 -- -- 60
2020-07-25 20:00:00 29.7 0 Calma 6 Sudeste 0 -- -- 57
2020-07-25 19:00:00 30.5 5 Sudeste 10 Sudeste 0 -- -- 51
2020-07-25 18:00:00 30.6 4 Sudeste 12 Sudeste 0 -- -- 47
2020-07-25 17:00:00 29.8 8 Sudeste 18 Sudeste 0 -- -- 51
2020-07-25 16:00:00 29.4 12 Sudeste 18 Sudeste 0 -- -- 51
2020-07-25 15:00:00 31.4 6 Este 15 Sudeste 0 -- -- 40
2020-07-25 14:00:00 30.2 9 Sudeste 16 Sudeste 0 -- -- 42
2020-07-25 13:00:00 30.2 10 Este 19 Este 0 -- -- 50
2020-07-25 12:00:00 30 11 Este 18 Sudeste 0 -- -- 51
2020-07-25 11:00:00 28.2 10 Este 16 Sudeste 0 -- -- 62
2020-07-25 10:00:00 27.3 8 Sudeste 13 Sudeste 0 -- -- 64
2020-07-25 09:00:00 27 5 Este 8 Sudeste 0 -- -- 60
2020-07-25 08:00:00 24 6 Oeste 10 Oeste 0 -- -- 75
2020-07-25 07:00:00 23 0 Calma 8 Sur 0 -- -- 85
2020-07-25 06:00:00 22.9 4 Sudoeste 7 Sudoeste 0 -- -- 82
2020-07-25 05:00:00 23.5 2 Oeste 9 Sudeste 0 -- -- 88
2020-07-25 04:00:00 22.8 4 Sur 6 Sudeste 0 -- -- 80
2020-07-25 03:00:00 23.3 3 Sur 9 Sur 0 -- -- 78
2020-07-25 02:00:00 23.7 3 Sur 7 Sur 0 -- -- 73
2020-07-25 01:00:00 23.7 2 Sur 4 Sur 0 -- -- 81
2020-07-25 00:00:00 24.3 0 Calma 4 Sudeste 0 -- -- 80
2020-07-24 23:00:00 24.8 0 Calma 5 Oeste 0 -- -- 78
2020-07-24 22:00:00 25.4 0 Calma 4 Noroeste 0 -- -- 78
2020-07-24 21:00:00 26.6 0 Calma 5 Este 0 -- -- 76
2020-07-24 20:00:00 27 4 Sudeste 9 Sudeste 0 -- -- 74
2020-07-24 19:00:00 28.3 6 Sudeste 12 Este 0 -- -- 69
2020-07-24 18:00:00 29.1 6 Este 14 Nordeste 0 -- -- 64
2020-07-24 17:00:00 29.3 10 Este 17 Este 0 -- -- 64
2020-07-24 16:00:00 29.7 9 Este 15 Este 0 -- -- 58
2020-07-24 15:00:00 29.3 10 Este 20 Sudeste 0 -- -- 65
2020-07-24 14:00:00 29.8 11 Este 19 Sudeste 0 -- -- 65
2020-07-24 13:00:00 28.8 10 Este 18 Sudeste 0 -- -- 63
2020-07-24 12:00:00 28.3 10 Sudeste 17 Sudeste 0 -- -- 65
2020-07-24 11:00:00 27.8 10 Sudeste 16 Sudeste 0 -- -- 67
2020-07-24 10:00:00 27.8 6 Este 11 Este 0 -- -- 64
2020-07-24 09:00:00 25.3 8 Sudeste 11 Sudeste 0 -- -- 76
2020-07-24 08:00:00 23.5 0 Calma 4 Sudeste 0 -- -- 74
2020-07-24 07:00:00 23.7 0 Calma 6 Oeste 0 -- -- 71
2020-07-24 06:00:00 22.9 6 Oeste 7 Oeste 0 -- -- 74
2020-07-24 05:00:00 22.8 0 Calma 2 Este 0 -- -- 81
2020-07-24 04:00:00 23.1 0 Calma 3 Sudoeste 0 -- -- 80
2020-07-24 03:00:00 23.4 2 Oeste 4 Oeste 0 -- -- 79
2020-07-24 02:00:00 23.2 0 Calma 5 Sur 0 -- -- 79
2020-07-24 01:00:00 23.7 0 Calma 4 Sudeste 0 -- -- 79
2020-07-24 00:00:00 24.4 0 Calma 3 Noroeste 0 -- -- 77
2020-07-23 23:00:00 24.7 0 Calma 4 Sudeste 0 -- -- 77
2020-07-23 22:00:00 25.1 0 Calma 5 Sudeste 0 -- -- 76
2020-07-23 21:00:00 25.7 0 Calma 8 Este 0 -- -- 75
2020-07-23 20:00:00 26.6 5 Este 10 Sudeste 0 -- -- 70
2020-07-23 19:00:00 27.5 5 Este 15 Este 0 -- -- 69
2020-07-23 18:00:00 28.1 8 Este 16 Este 0 -- -- 67
2020-07-23 17:00:00 27.9 14 Este 22 Este 0 -- -- 68
2020-07-23 16:00:00 27.9 13 Sudeste 21 Sudeste 0 -- -- 69
2020-07-23 15:00:00 27.7 12 Este 21 Sudeste 0 -- -- 67
2020-07-23 14:00:00 27.3 12 Sudeste 25 Sudeste 0 -- -- 67
2020-07-23 13:00:00 26.8 14 Sudeste 22 Este 0 -- -- 70
2020-07-23 12:00:00 27.8 10 Sudeste 20 Este 0 -- -- 63
2020-07-23 11:00:00 28.1 11 Este 17 Este 0 -- -- 61
2020-07-23 10:00:00 27.2 8 Este 13 Sudeste 0 -- -- 65
2020-07-23 09:00:00 26.3 3 Este 7 Este 0 -- -- 66
2020-07-23 08:00:00 23.5 0 Calma 4 Sudoeste 0 -- -- 76
2020-07-23 07:00:00 22.4 0 Calma 4 Sudoeste 0 -- -- 73
2020-07-23 06:00:00 22.7 2 Sur 5 Oeste 0 -- -- 78
2020-07-23 05:00:00 22.6 2 Sudoeste 4 Sudoeste 0 -- -- 80
2020-07-23 04:00:00 22.6 3 Oeste 8 Oeste 0 -- -- 85
2020-07-23 03:00:00 22.5 0 Calma 4 Oeste 0 -- -- 86
2020-07-23 02:00:00 22.9 3 Sudoeste 4 Sudoeste 0 -- -- 87
2020-07-23 01:00:00 23.2 0 Calma 9 Este 0 -- -- 86
2020-07-23 00:00:00 23.5 6 Este 13 Nordeste 0 -- -- 89
2020-07-22 23:00:00 24.1 4 Nordeste 8 Nordeste 0 -- -- 81
2020-07-22 22:00:00 24.9 4 Nordeste 12 Este 0 -- -- 72
2020-07-22 21:00:00 26.2 7 Sudoeste 27 Sudoeste 0 -- -- 64
2020-07-22 20:00:00 26.8 20 Sudoeste 32 Sudoeste 0 -- -- 65
2020-07-22 19:00:00 28.8 19 Sudoeste 31 Oeste 0 -- -- 56
2020-07-22 18:00:00 30.1 22 Oeste 32 Oeste 0 -- -- 52
2020-07-22 17:00:00 30.6 13 Oeste 28 Noroeste 0 -- -- 50
2020-07-22 16:00:00 30.5 15 Oeste 33 Oeste 0 -- -- 49
2020-07-22 15:00:00 31 8 Noroeste 31 Oeste 0 -- -- 50
2020-07-22 14:00:00 30.5 9 Norte 28 Oeste 0 -- -- 53
2020-07-22 13:00:00 29 15 Sudoeste 31 Sur 0 -- -- 57
2020-07-22 12:00:00 28.7 13 Sur 26 Sur 0 -- -- 58
2020-07-22 11:00:00 29.3 9 Sudeste 17 Sudeste 0 -- -- 56
2020-07-22 10:00:00 28.1 6 Nordeste 10 Este 0 -- -- 55
2020-07-22 09:00:00 25.8 3 Nordeste 9 Este 0 -- -- 61
2020-07-22 08:00:00 23.3 4 Sudeste 7 Sudeste 0 -- -- 74
2020-07-22 07:00:00 22.5 2 Sudoeste 9 Sudeste 0 -- -- 73
2020-07-22 06:00:00 22.7 3 Sur 10 Sudoeste 0 -- -- 71
2020-07-22 05:00:00 23.2 2 Sur 9 Oeste 0 -- -- 69
2020-07-22 04:00:00 23.6 4 Oeste 6 Sudoeste 0 -- -- 65
2020-07-22 03:00:00 24.2 5 Oeste 22 Sudoeste 0 -- -- 64
2020-07-22 02:00:00 25.6 12 Sudoeste 19 Sur 0 -- -- 59
2020-07-22 01:00:00 24.5 3 Noroeste 13 Sur 0 -- -- 71
2020-07-22 00:00:00 23.8 4 Sur 11 Sur 0 -- -- 67
2020-07-21 23:00:00 23.4 0 Calma 10 Este 0 -- -- 81
2020-07-21 22:00:00 23.7 6 Sudeste 28 Sudoeste 0 -- -- 80
2020-07-21 21:00:00 25 24 Sudoeste 36 Sudoeste 0 -- -- 73
2020-07-21 20:00:00 28.6 9 Sur 23 Sudoeste 0 -- -- 52
2020-07-21 19:00:00 30.4 8 Sur 20 Sudeste 0 -- -- 47
2020-07-21 18:00:00 29.4 11 Sudeste 20 Sudeste 0 -- -- 56
2020-07-21 17:00:00 27.3 12 Sudeste 30 Sudeste 0 -- -- 67
2020-07-21 16:00:00 28 17 Este 31 Este 0 -- -- 66
2020-07-21 15:00:00 28.1 18 Este 30 Este 0 -- -- 64
2020-07-21 14:00:00 28.1 15 Este 26 Este 0 -- -- 62
2020-07-21 13:00:00 27.9 13 Este 26 Sudeste 0 -- -- 63
2020-07-21 12:00:00 28.4 14 Este 24 Este 0 -- -- 57
2020-07-21 11:00:00 28.1 15 Sudeste 29 Sudeste 0 -- -- 54
2020-07-21 10:00:00 30.8 9 Este 13 Este 0 -- -- 41
2020-07-21 09:00:00 26.3 3 Noroeste 16 Oeste 0 -- -- 62
2020-07-21 08:00:00 25.3 5 Sudoeste 15 Sudeste 0 -- -- 65
2020-07-21 07:00:00 26.1 4 Sudeste 23 Sudeste 0 -- -- 65
2020-07-21 06:00:00 28.6 6 Sur 24 Sudeste 0 -- -- 39
2020-07-21 05:00:00 28.8 8 Oeste 18 Sudeste 0 -- -- 33
2020-07-21 04:00:00 26.1 7 Sudoeste 14 Oeste 0 -- -- 55
2020-07-21 03:00:00 26 7 Oeste 24 Oeste 0 -- -- 58
2020-07-21 02:00:00 23.9 24 Oeste 52 Oeste 0 -- -- 78
2020-07-21 01:00:00 24.4 10 Oeste 17 Oeste 0 -- -- 61
2020-07-21 00:00:00 24.3 0 Calma 7 Sur 0 -- -- 66
2020-07-20 23:00:00 25.5 3 Sudeste 10 Sudeste 0 -- -- 60
2020-07-20 22:00:00 27.3 6 Sudeste 11 Este 0 -- -- 53
2020-07-20 21:00:00 26.8 3 Sudeste 8 Noroeste 0 -- -- 67
2020-07-20 20:00:00 29.1 3 Sudeste 9 Noroeste 0 -- -- 52
2020-07-20 19:00:00 27.5 4 Este 13 Sudeste 0 -- -- 64
2020-07-20 18:00:00 27.4 8 Sudeste 17 Sudeste 0 -- -- 66
2020-07-20 17:00:00 27.5 10 Sudeste 19 Sudeste 0 -- -- 65
2020-07-20 16:00:00 27.9 11 Sudeste 17 Sudeste 0 -- -- 62
2020-07-20 15:00:00 28.6 10 Este 19 Sudeste 0 -- -- 61
2020-07-20 14:00:00 28.6 10 Este 21 Sudeste 0 -- -- 58
2020-07-20 13:00:00 27.3 12 Sudeste 23 Sudeste 0 -- -- 57
2020-07-20 12:00:00 27.3 15 Sudeste 21 Este 0 -- -- 65
2020-07-20 11:00:00 29.2 10 Sudeste 17 Este 0 -- -- 47
2020-07-20 10:00:00 29.1 12 Este 17 Sudeste 0 -- -- 53
2020-07-20 09:00:00 28 4 Nordeste 10 Sudeste 0 -- -- 59
2020-07-20 08:00:00 25 0 Calma 9 Sur 0 -- -- 65
2020-07-20 07:00:00 23.1 3 Oeste 7 Sur 0 -- -- 75
2020-07-20 06:00:00 23.2 3 Sur 9 Oeste 0 -- -- 78
2020-07-20 05:00:00 22.2 3 Sur 10 Sudeste 0 -- -- 84
2020-07-20 04:00:00 22.6 4 Sur 7 Oeste 0 -- -- 79
2020-07-20 03:00:00 23 2 Oeste 4 Nordeste 0 -- -- 76
2020-07-20 02:00:00 23.3 0 Calma 3 Noroeste 0 -- -- 77
2020-07-20 01:00:00 23.4 3 Oeste 7 Oeste 0 -- -- 73
2020-07-20 00:00:00 23.3 3 Noroeste 10 Oeste 0 -- -- 83
2020-07-19 23:00:00 23.3 0 Calma 5 Sur 0 -- -- 81
2020-07-19 22:00:00 24.1 3 Norte 9 Nordeste 0 -- -- 80
2020-07-19 21:00:00 25.2 4 Este 7 Este 0 -- -- 75
2020-07-19 20:00:00 25.5 3 Sudeste 15 Este 0 -- -- 74
2020-07-19 19:00:00 26.9 11 Este 21 Este 0 -- -- 70
2020-07-19 18:00:00 27.4 10 Este 17 Sudeste 0 -- -- 66
2020-07-19 17:00:00 26.5 12 Este 30 Este 0 -- -- 71
2020-07-19 16:00:00 26.5 18 Sudeste 26 Sudeste 0 -- -- 71
2020-07-19 15:00:00 26.8 13 Sudeste 26 Este 0 -- -- 67
2020-07-19 14:00:00 26.9 18 Sudeste 27 Sudeste 0 -- -- 65
2020-07-19 13:00:00 27.8 15 Este 22 Sudeste 0 -- -- 64
2020-07-19 12:00:00 27 12 Sudeste 22 Sudeste 0 -- -- 65
2020-07-19 11:00:00 28.2 10 Este 15 Sudeste 0 -- -- 63
2020-07-19 10:00:00 27.3 5 Sudeste 12 Sudeste 0 -- -- 64
2020-07-19 09:00:00 25.5 5 Este 10 Sudeste 0 -- -- 75
2020-07-19 08:00:00 22.9 0 Calma 7 Sudeste 0 -- -- 87
2020-07-19 07:00:00 22.2 2 Sur 10 Oeste 0 -- -- 81
2020-07-19 06:00:00 22.2 7 Oeste 10 Oeste 0 -- -- 85
2020-07-19 05:00:00 22.5 0 Calma 5 Este 0 -- -- 87
2020-07-19 04:00:00 22.7 5 Sudeste 7 Sudeste 0 -- -- 87
2020-07-19 03:00:00 22.6 5 Sudeste 9 Sudeste 0 -- -- 87
2020-07-19 02:00:00 22.8 6 Sudeste 8 Sudeste 0 -- -- 88
2020-07-19 01:00:00 23 4 Sudeste 10 Este 0 -- -- 87
2020-07-19 00:00:00 23.1 4 Sudeste 6 Sudeste 0 -- -- 86
2020-07-18 23:00:00 22.9 3 Sudeste 8 Sudeste 0 -- -- 86
2020-07-18 22:00:00 22.8 5 Sudeste 11 Sudeste 0 -- -- 85
2020-07-18 21:00:00 23.4 8 Sudeste 12 Sudeste 0 -- -- 81
2020-07-18 20:00:00 24.5 7 Sudeste 15 Sudeste 0 -- -- 76
2020-07-18 19:00:00 25.5 12 Sudeste 21 Este 0 -- -- 72
2020-07-18 18:00:00 25.9 17 Sudeste 24 Sudeste 0 -- -- 71
2020-07-18 17:00:00 26.3 16 Sudeste 28 Este 0 -- -- 70
2020-07-18 16:00:00 26.1 18 Sudeste 30 Sudeste 0 -- -- 70
2020-07-18 15:00:00 26.7 18 Sudeste 27 Sudeste 0 -- -- 67
2020-07-18 14:00:00 26.7 14 Sudeste 24 Sudeste 0 -- -- 61
2020-07-18 13:00:00 27.2 12 Sudeste 24 Sudeste 0 -- -- 58
2020-07-18 12:00:00 28.1 11 Sudeste 20 Sudeste 0 -- -- 46
2020-07-18 11:00:00 28.9 7 Sudeste 16 Este 0 -- -- 42
2020-07-18 10:00:00 27.6 3 Este 10 Este 0 -- -- 47
2020-07-18 09:00:00 25.7 4 Este 9 Sudeste 0 -- -- 60
2020-07-18 08:00:00 23.1 0 Calma 9 Sur 0 -- -- 68
2020-07-18 07:00:00 22 3 Sur 7 Sudeste 0 -- -- 71
2020-07-18 06:00:00 21.8 0 Calma 5 Noroeste 0 -- -- 76
2020-07-18 05:00:00 22.1 3 Este 12 Oeste 0 -- -- 73
2020-07-18 04:00:00 21.4 7 Oeste 10 Oeste 0 -- -- 85
2020-07-18 03:00:00 21.4 4 Sur 6 Sur 0 -- -- 85
2020-07-18 02:00:00 21.6 0 Calma 4 Oeste 0 -- -- 83
2020-07-18 01:00:00 22.2 0 Calma 4 Sudeste 0 -- -- 85
2020-07-18 00:00:00 22.3 3 Sudeste 5 Sudeste 0 -- -- 80
2020-07-17 23:00:00 22.4 5 Sur 8 Sudeste 0 -- -- 77
2020-07-17 22:00:00 23.1 2 Sudeste 5 Sudeste 0 -- -- 72
2020-07-17 21:00:00 23.4 4 Sudeste 12 Sudeste 0 -- -- 65
2020-07-17 20:00:00 24.6 9 Sudeste 16 Sudeste 0 -- -- 68
2020-07-17 19:00:00 26.2 11 Sudeste 15 Sudeste 0 -- -- 59
2020-07-17 18:00:00 27 8 Sudeste 15 Sudeste 0 -- -- 56
2020-07-17 17:00:00 26.3 11 Sudeste 18 Sudeste 0 -- -- 54
2020-07-17 16:00:00 27.3 10 Sudeste 21 Sudeste 0 -- -- 54
2020-07-17 15:00:00 27.6 12 Sudeste 21 Este 0 -- -- 53
2020-07-17 14:00:00 28.4 13 Este 20 Sudeste 0 -- -- 38
2020-07-17 13:00:00 27.8 9 Sudeste 21 Sudeste 0 -- -- 45
2020-07-17 12:00:00 27.7 13 Sudeste 22 Sudeste 0 -- -- 50
2020-07-17 11:00:00 28.2 10 Este 22 Sudeste 0 -- -- 42
2020-07-17 10:00:00 28 7 Este 12 Este 0 -- -- 48
2020-07-17 09:00:00 25.8 3 Noroeste 7 Sudeste 0 -- -- 58
2020-07-17 08:00:00 23.9 3 Sudeste 8 Oeste 0 -- -- 67
2020-07-17 07:00:00 22 6 Oeste 8 Oeste 0 -- -- 75
2020-07-17 06:00:00 22 0 Calma 9 Sudeste 0 -- -- 73
2020-07-17 05:00:00 23.5 3 Sur 9 Sudeste 0 -- -- 67
2020-07-17 04:00:00 22.8 3 Oeste 8 Oeste 0 -- -- 73
2020-07-17 03:00:00 22.3 4 Oeste 7 Oeste 0 -- -- 76
2020-07-17 02:00:00 21.8 0 Calma 3 Sudoeste 0 -- -- 81
2020-07-17 01:00:00 22.3 0 Calma 8 Noroeste 0 -- -- 82
2020-07-17 00:00:00 22.8 2 Noroeste 6 Oeste 0 -- -- 80
2020-07-16 23:00:00 23.3 3 Sudoeste 10 Sudoeste 0 -- -- 77
2020-07-16 22:00:00 23.9 3 Norte 6 Noroeste 0 -- -- 74
2020-07-16 21:00:00 25.2 6 Noroeste 13 Oeste 0 -- -- 68
2020-07-16 20:00:00 26.3 7 Sudeste 12 Este 0 -- -- 59
2020-07-16 19:00:00 28.2 8 Este 14 Este 0 -- -- 54
2020-07-16 18:00:00 28.9 5 Sudeste 16 Sudeste 0 -- -- 47
2020-07-16 17:00:00 28.8 8 Sudeste 19 Sudeste 0 -- -- 48
2020-07-16 16:00:00 28.9 10 Este 22 Sudeste 0 -- -- 47
2020-07-16 15:00:00 29 12 Sudeste 23 Sudeste 0 -- -- 44
2020-07-16 14:00:00 29 13 Sudeste 25 Este 0 -- -- 43
2020-07-16 13:00:00 29.4 11 Este 24 Sudeste 0 -- -- 43
2020-07-16 12:00:00 28.9 12 Sudeste 20 Sudeste 0 -- -- 40
2020-07-16 11:00:00 28.4 10 Este 23 Sudeste 0 -- -- 44
2020-07-16 10:00:00 28.2 7 Sudeste 13 Sudeste 0 -- -- 45
2020-07-16 09:00:00 26.6 4 Este 6 Nordeste 0 -- -- 54
2020-07-16 08:00:00 23.2 0 Calma 6 Sudoeste 0 -- -- 64
2020-07-16 07:00:00 22.3 2 Sudoeste 5 Sudoeste 0 -- -- 66
2020-07-16 06:00:00 22.6 0 Calma 8 Sudoeste 0 -- -- 64
2020-07-16 05:00:00 22.5 5 Sur 7 Sur 0 -- -- 64
2020-07-16 04:00:00 22.8 3 Sudoeste 9 Sudoeste 0 -- -- 68
2020-07-16 03:00:00 22.6 6 Oeste 8 Oeste 0 -- -- 69
2020-07-16 02:00:00 22.6 4 Sur 8 Sudoeste 0 -- -- 70
2020-07-16 01:00:00 23 3 Sur 5 Oeste 0 -- -- 71
2020-07-16 00:00:00 23 5 Oeste 8 Oeste 0 -- -- 77
2020-07-15 23:00:00 23.5 3 Oeste 4 Noroeste 0 -- -- 77
2020-07-15 22:00:00 24.5 3 Este 11 Sudeste 0 -- -- 69
2020-07-15 21:00:00 25.8 4 Sur 10 Sur 0 -- -- 63
2020-07-15 20:00:00 26.4 6 Sudeste 12 Sudeste 0 -- -- 65
2020-07-15 19:00:00 27.7 4 Sur 18 Este 0 -- -- 60
2020-07-15 18:00:00 27.4 8 Sudeste 24 Este 0 -- -- 61
2020-07-15 17:00:00 27.7 13 Este 20 Sudeste 0 -- -- 57
2020-07-15 16:00:00 26.9 14 Sudeste 24 Sudeste 0 -- -- 60
2020-07-15 15:00:00 27.9 12 Este 24 Sudeste 0 -- -- 53
2020-07-15 14:00:00 27.5 12 Sudeste 23 Sudeste 0 -- -- 56
2020-07-15 13:00:00 27.5 15 Sudeste 25 Sudeste 0 -- -- 54
2020-07-15 12:00:00 26.8 14 Sudeste 23 Este 0 -- -- 59
2020-07-15 11:00:00 26.7 11 Sudeste 17 Sudeste 0 -- -- 58
2020-07-15 10:00:00 27.5 6 Este 13 Este 0 -- -- 55
2020-07-15 09:00:00 26.6 3 Este 8 Este 0 -- -- 59
2020-07-15 08:00:00 23.6 5 Sudeste 12 Oeste 0 -- -- 68
2020-07-15 07:00:00 21.4 12 Oeste 16 Oeste 0 -- -- 86
2020-07-15 06:00:00 21.5 5 Sur 6 Sur 0 -- -- 84
2020-07-15 05:00:00 21.9 0 Calma 7 Este 0 -- -- 81
2020-07-15 04:00:00 21.9 0 Calma 5 Noroeste 0 -- -- 79
2020-07-15 03:00:00 22.2 4 Sur 8 Sudeste 0 -- -- 77
2020-07-15 02:00:00 22.5 3 Sudeste 9 Sudeste 0 -- -- 79
2020-07-15 01:00:00 22.4 4 Noroeste 7 Sudeste 0 -- -- 87
2020-07-15 00:00:00 22.5 5 Sudeste 8 Sudeste 0 -- -- 89